Time;durP1;ratioP1;P1;durP2;ratioP2;P2;SDS_P1;SDS_P2;PMS_P1;PMS_P2;Temp;Humidity;BMP_temperature;BMP_pressure;BME280_temperature;BME280_humidity;BME280_pressure;Samples;Min_cycle;Max_cycle;Signal;HPM_P1;HPM_P2
2023/05/07 00:01:43;;;;;;;3.85;2.60;;;;;;;;;;5044856;28;20431;-77
2023/05/07 00:04:13;;;;;;;4.03;2.47;;;;;;;;;;5045519;28;20052;-76
2023/05/07 00:06:45;;;;;;;4.95;2.50;;;;;;;;;;5045409;28;20617;-76
2023/05/07 00:09:16;;;;;;;6.20;2.97;;;;;;;;;;5046058;28;20397;-76
2023/05/07 00:11:46;;;;;;;4.43;2.63;;;;;;;;;;5045795;28;20045;-76
2023/05/07 00:14:17;;;;;;;6.05;2.50;;;;;;;;;;5042883;28;20496;-76
2023/05/07 00:16:49;;;;;;;5.75;2.85;;;;;;;;;;5043303;28;20057;-79
2023/05/07 00:19:20;;;;;;;6.88;2.78;;;;;;;;;;5043811;28;20063;-76
2023/05/07 00:21:53;;;;;;;3.88;2.72;;;;;;;;;;5046552;28;20059;-77
2023/05/07 00:24:24;;;;;;;5.72;2.97;;;;;;;;;;5053437;28;20048;-76
2023/05/07 00:26:57;;;;;;;4.05;3.20;;;;;;;;;;5054599;28;20056;-78
2023/05/07 00:29:28;;;;;;;10.85;3.88;;;;;;;;;;5056135;28;20052;-77
2023/05/07 00:31:59;;;;;;;7.03;3.92;;;;;;;;;;5057666;28;20044;-76
2023/05/07 00:34:30;;;;;;;11.68;4.22;;;;;;;;;;5056076;28;20055;-77
2023/05/07 00:37:03;;;;;;;7.07;4.05;;;;;;;;;;5054395;28;20435;-76
2023/05/07 00:39:36;;;;;;;8.40;4.93;;;;;;;;;;5056219;28;20542;-76
2023/05/07 00:42:06;;;;;;;12.25;4.93;;;;;;;;;;5031767;28;20057;-76
2023/05/07 00:44:40;;;;;;;11.80;5.25;;;;;;;;;;5045870;28;20068;-76
2023/05/07 00:47:12;;;;;;;8.32;5.05;;;;;;;;;;5055406;28;20047;-76
2023/05/07 00:49:45;;;;;;;10.50;6.40;;;;;;;;;;5054581;28;20056;-76
2023/05/07 00:52:20;;;;;;;13.70;7.07;;;;;;;;;;5052814;28;20051;-77
2023/05/07 00:54:50;;;;;;;13.63;8.05;;;;;;;;;;5054284;28;20052;-74
2023/05/07 00:57:25;;;;;;;10.40;7.07;;;;;;;;;;5052641;28;20064;-74
2023/05/07 00:59:56;;;;;;;11.13;6.88;;;;;;;;;;5070474;28;20041;-74
2023/05/07 01:02:29;;;;;;;10.68;6.82;;;;;;;;;;5054236;28;20055;-74
2023/05/07 01:05:01;;;;;;;11.02;6.70;;;;;;;;;;5053359;28;20045;-74
2023/05/07 01:07:35;;;;;;;9.73;5.93;;;;;;;;;;5054276;28;20037;-74
2023/05/07 01:10:07;;;;;;;9.90;5.95;;;;;;;;;;5053365;28;20041;-74
2023/05/07 01:12:41;;;;;;;10.77;4.97;;;;;;;;;;5052706;28;21221;-75
2023/05/07 01:15:12;;;;;;;8.52;5.10;;;;;;;;;;5054046;28;20043;-75
2023/05/07 01:17:44;;;;;;;15.48;5.18;;;;;;;;;;5084283;28;20061;-75
2023/05/07 01:20:23;;;;;;;7.20;4.38;;;;;;;;;;5053461;28;20040;-75
2023/05/07 01:22:58;;;;;;;7.40;3.58;;;;;;;;;;5061626;28;20059;-75
2023/05/07 01:25:28;;;;;;;6.70;3.20;;;;;;;;;;5064267;28;20033;-74
2023/05/07 01:28:03;;;;;;;5.43;2.40;;;;;;;;;;5062291;28;20403;-74
2023/05/07 01:30:42;;;;;;;6.60;3.17;;;;;;;;;;5063170;28;20079;-75
2023/05/07 01:33:15;;;;;;;;;;;;;;;;;;5063249;28;20422;-75
2023/05/07 01:35:48;;;;;;;6.38;2.88;;;;;;;;;;5062502;28;19931;-75
2023/05/07 01:38:23;;;;;;;6.85;3.33;;;;;;;;;;5062557;28;20056;-75
2023/05/07 01:40:57;;;;;;;5.53;2.95;;;;;;;;;;5063225;28;20055;-75
2023/05/07 01:43:32;;;;;;;6.00;3.35;;;;;;;;;;5064497;28;20048;-75
2023/05/07 01:46:03;;;;;;;5.20;2.95;;;;;;;;;;5062639;28;20082;-75
2023/05/07 01:48:36;;;;;;;6.72;2.95;;;;;;;;;;5064306;28;20064;-75
2023/05/07 01:51:07;;;;;;;5.00;3.63;;;;;;;;;;5064832;28;20052;-75
2023/05/07 01:53:40;;;;;;;4.45;3.35;;;;;;;;;;5065034;28;20048;-75
2023/05/07 01:56:11;;;;;;;9.38;3.50;;;;;;;;;;5063306;28;20048;-75
2023/05/07 01:58:44;;;;;;;7.15;2.95;;;;;;;;;;5063119;28;20045;-75
2023/05/07 02:01:15;;;;;;;10.90;3.70;;;;;;;;;;5064601;28;20048;-77
2023/05/07 02:03:45;;;;;;;7.95;3.35;;;;;;;;;;5062919;28;20351;-75
2023/05/07 02:06:23;;;;;;;5.55;4.07;;;;;;;;;;5062614;28;20060;-75
2023/05/07 02:08:58;;;;;;;12.88;4.50;;;;;;;;;;5064355;28;20040;-75
2023/05/07 02:11:30;;;;;;;9.27;4.90;;;;;;;;;;5062478;28;20048;-75
2023/05/07 02:14:07;;;;;;;9.98;5.25;;;;;;;;;;5062671;28;20056;-75
2023/05/07 02:16:37;;;;;;;9.02;5.50;;;;;;;;;;5064132;28;20617;-75
2023/05/07 02:19:08;;;;;;;16.35;9.25;;;;;;;;;;5062114;28;20131;-75
2023/05/07 02:21:39;;;;;;;10.00;6.80;;;;;;;;;;5066247;28;20044;-74
2023/05/07 02:24:10;;;;;;;8.88;6.00;;;;;;;;;;5068158;28;20049;-74
2023/05/07 02:26:41;;;;;;;11.70;5.75;;;;;;;;;;5068498;28;20041;-75
2023/05/07 02:29:11;;;;;;;9.60;5.60;;;;;;;;;;5066246;28;20056;-76
2023/05/07 02:31:42;;;;;;;11.75;5.60;;;;;;;;;;5049185;28;20055;-75
2023/05/07 02:34:13;;;;;;;9.18;5.32;;;;;;;;;;5067652;28;20048;-75
2023/05/07 02:36:43;;;;;;;11.15;5.03;;;;;;;;;;5067589;28;20052;-74
2023/05/07 02:39:17;;;;;;;12.20;5.50;;;;;;;;;;5065878;28;20055;-75
2023/05/07 02:41:49;;;;;;;12.70;5.47;;;;;;;;;;5067721;28;20044;-75
2023/05/07 02:44:20;;;;;;;8.23;5.50;;;;;;;;;;5067305;28;20065;-75
2023/05/07 02:46:52;;;;;;;8.63;4.97;;;;;;;;;;5066416;28;20048;-74
2023/05/07 02:49:23;;;;;;;10.13;4.63;;;;;;;;;;5065787;28;20057;-75
2023/05/07 02:51:55;;;;;;;8.15;3.83;;;;;;;;;;5065538;28;20059;-75
2023/05/07 02:54:26;;;;;;;5.35;3.65;;;;;;;;;;5067366;28;20044;-75
2023/05/07 02:56:56;;;;;;;7.40;3.13;;;;;;;;;;5066015;28;20415;-76
2023/05/07 02:59:27;;;;;;;4.53;3.50;;;;;;;;;;5065299;28;20057;-74
2023/05/07 03:01:58;;;;;;;10.10;3.78;;;;;;;;;;5066022;28;20044;-75
2023/05/07 03:04:29;;;;;;;6.05;3.40;;;;;;;;;;5065966;28;20053;-75
2023/05/07 03:07:00;;;;;;;5.18;2.97;;;;;;;;;;5065103;28;20057;-75
2023/05/07 03:09:29;;;;;;;3.67;3.10;;;;;;;;;;5049374;28;20143;-75
2023/05/07 03:12:02;;;;;;;6.82;2.72;;;;;;;;;;5048817;28;20430;-74
2023/05/07 03:14:34;;;;;;;5.35;2.85;;;;;;;;;;5065773;28;20506;-75
2023/05/07 03:17:05;;;;;;;5.90;2.80;;;;;;;;;;5067287;28;20052;-75
2023/05/07 03:19:35;;;;;;;8.05;2.60;;;;;;;;;;5067383;28;20597;-75
2023/05/07 03:22:07;;;;;;;4.63;2.58;;;;;;;;;;5065281;28;20407;-75
2023/05/07 03:24:37;;;;;;;4.28;2.25;;;;;;;;;;5065845;28;20452;-75
2023/05/07 03:27:08;;;;;;;8.60;2.80;;;;;;;;;;5065168;28;20533;-75
2023/05/07 03:29:38;;;;;;;4.75;2.95;;;;;;;;;;5065152;28;20072;-75
2023/05/07 03:32:09;;;;;;;4.38;2.30;;;;;;;;;;5064580;28;20048;-75
2023/05/07 03:34:40;;;;;;;8.57;2.63;;;;;;;;;;5064491;28;20060;-75
2023/05/07 03:37:13;;;;;;;8.38;2.90;;;;;;;;;;5065022;28;20052;-75
2023/05/07 03:39:44;;;;;;;6.28;2.58;;;;;;;;;;5064730;28;20052;-75
2023/05/07 03:42:15;;;;;;;14.00;2.67;;;;;;;;;;5065002;28;20529;-75
2023/05/07 03:44:47;;;;;;;15.77;2.60;;;;;;;;;;5064880;28;20079;-75
2023/05/07 03:47:18;;;;;;;7.82;2.60;;;;;;;;;;5064264;28;20045;-75
2023/05/07 03:49:49;;;;;;;6.43;2.75;;;;;;;;;;5048657;28;20052;-74
2023/05/07 03:52:23;;;;;;;4.65;2.83;;;;;;;;;;5067088;28;20826;-75
2023/05/07 03:54:56;;;;;;;14.82;2.83;;;;;;;;;;5064166;28;20053;-75
2023/05/07 03:57:27;;;;;;;11.38;2.40;;;;;;;;;;5063994;28;20844;-74
2023/05/07 03:59:59;;;;;;;5.07;2.70;;;;;;;;;;5064435;28;20056;-75
2023/05/07 04:02:34;;;;;;;7.60;2.63;;;;;;;;;;5064314;28;20057;-75
2023/05/07 04:05:06;;;;;;;10.48;2.88;;;;;;;;;;5064568;28;20055;-75
2023/05/07 04:07:36;;;;;;;6.22;3.10;;;;;;;;;;5064896;28;20057;-75
2023/05/07 04:10:07;;;;;;;9.82;2.60;;;;;;;;;;5064582;28;20057;-75
2023/05/07 04:12:40;;;;;;;15.45;2.85;;;;;;;;;;5063784;28;20845;-75
2023/05/07 04:15:15;;;;;;;7.10;2.60;;;;;;;;;;5064424;28;20557;-75
2023/05/07 04:17:46;;;;;;;6.20;2.67;;;;;;;;;;5065622;28;20044;-75
2023/05/07 04:20:19;;;;;;;4.10;2.50;;;;;;;;;;5064014;28;20515;-76
2023/05/07 04:22:56;;;;;;;3.38;2.70;;;;;;;;;;5063491;28;20053;-75
2023/05/07 04:25:29;;;;;;;8.93;2.63;;;;;;;;;;5064050;28;20055;-75
2023/05/07 04:28:08;;;;;;;3.35;2.13;;;;;;;;;;5063296;28;20514;-75
2023/05/07 04:30:41;;;;;;;5.38;2.90;;;;;;;;;;5064306;28;20057;-75
2023/05/07 04:33:12;;;;;;;9.70;3.08;;;;;;;;;;5065211;28;20048;-75
2023/05/07 04:35:44;;;;;;;5.22;2.97;;;;;;;;;;5063652;28;20049;-75
2023/05/07 04:38:16;;;;;;;4.47;2.92;;;;;;;;;;5063864;28;20084;-76
2023/05/07 04:40:47;;;;;;;4.72;2.97;;;;;;;;;;5063725;28;20049;-75
2023/05/07 04:43:24;;;;;;;8.60;2.47;;;;;;;;;;5063094;28;20060;-75
2023/05/07 04:45:55;;;;;;;8.20;2.60;;;;;;;;;;5064644;28;20048;-75
2023/05/07 04:48:28;;;;;;;4.93;2.80;;;;;;;;;;5064920;28;20063;-76
2023/05/07 04:51:00;;;;;;;7.03;2.80;;;;;;;;;;5063891;28;20059;-76
2023/05/07 04:53:31;;;;;;;8.90;2.90;;;;;;;;;;5064034;28;20060;-75
2023/05/07 04:56:02;;;;;;;9.38;2.97;;;;;;;;;;5063325;28;20061;-75
2023/05/07 04:58:38;;;;;;;13.75;2.60;;;;;;;;;;5064012;28;20419;-75
2023/05/07 05:01:10;;;;;;;11.13;2.80;;;;;;;;;;5063495;28;20059;-75
2023/05/07 05:03:42;;;;;;;4.82;2.45;;;;;;;;;;5063153;28;20064;-75
2023/05/07 05:06:13;;;;;;;7.72;2.55;;;;;;;;;;5065049;28;20483;-75
2023/05/07 05:08:44;;;;;;;3.63;2.35;;;;;;;;;;5063413;28;20044;-76
2023/05/07 05:11:14;;;;;;;10.65;2.58;;;;;;;;;;5047322;28;20048;-75
2023/05/07 05:13:49;;;;;;;5.00;2.10;;;;;;;;;;5063255;28;20411;-75
2023/05/07 05:16:21;;;;;;;7.38;2.63;;;;;;;;;;5063469;28;20403;-76
2023/05/07 05:18:53;;;;;;;7.47;2.53;;;;;;;;;;5063168;28;20071;-75
2023/05/07 05:21:24;;;;;;;5.30;2.70;;;;;;;;;;5063184;28;20052;-75
2023/05/07 05:23:59;;;;;;;5.95;4.57;;;;;;;;;;5063149;28;20139;-75
2023/05/07 05:26:30;;;;;;;7.68;2.70;;;;;;;;;;5065144;28;20067;-76
2023/05/07 05:29:00;;;;;;;10.35;5.88;;;;;;;;;;5063413;28;20052;-75
2023/05/07 05:31:33;;;;;;;5.03;4.32;;;;;;;;;;5063723;28;20059;-75
2023/05/07 05:34:04;;;;;;;9.13;4.70;;;;;;;;;;5064818;28;20052;-76
2023/05/07 05:36:35;;;;;;;6.45;5.10;;;;;;;;;;5063066;28;20055;-75
2023/05/07 05:39:05;;;;;;;8.00;4.53;;;;;;;;;;5062668;28;20415;-75
2023/05/07 05:41:35;;;;;;;10.15;5.32;;;;;;;;;;5063866;28;20061;-75
2023/05/07 05:44:05;;;;;;;14.10;6.78;;;;;;;;;;5062911;28;20048;-75
2023/05/07 05:46:37;;;;;;;15.50;7.30;;;;;;;;;;5064944;28;20063;-75
2023/05/07 05:49:08;;;;;;;12.98;8.15;;;;;;;;;;5063646;28;20052;-75
2023/05/07 05:51:39;;;;;;;15.43;8.40;;;;;;;;;;5062762;28;20048;-75
2023/05/07 05:54:10;;;;;;;15.45;8.70;;;;;;;;;;5064534;28;20075;-75
2023/05/07 05:56:40;;;;;;;16.75;8.82;;;;;;;;;;5066897;28;20057;-75
2023/05/07 05:59:11;;;;;;;14.77;8.85;;;;;;;;;;5067227;28;20052;-75
2023/05/07 06:01:41;;;;;;;17.48;8.70;;;;;;;;;;5066684;28;20061;-76
2023/05/07 06:04:12;;;;;;;13.88;8.57;;;;;;;;;;5066935;28;20063;-74
2023/05/07 06:06:44;;;;;;;14.48;8.15;;;;;;;;;;5066823;28;20510;-75
2023/05/07 06:09:15;;;;;;;15.95;8.88;;;;;;;;;;5065703;28;20053;-75
2023/05/07 06:11:46;;;;;;;16.60;8.20;;;;;;;;;;5066214;28;20971;-76
2023/05/07 06:14:16;;;;;;;15.88;7.15;;;;;;;;;;5068721;28;20422;-75
2023/05/07 06:16:46;;;;;;;14.50;7.43;;;;;;;;;;5068059;28;20052;-75
2023/05/07 06:19:22;;;;;;;14.35;7.65;;;;;;;;;;5066518;28;20048;-75
2023/05/07 06:21:58;;;;;;;18.08;8.73;;;;;;;;;;5066126;28;20056;-76
2023/05/07 06:24:29;;;;;;;12.65;8.05;;;;;;;;;;5066141;28;20056;-75
2023/05/07 06:26:59;;;;;;;15.40;8.50;;;;;;;;;;5067487;28;20051;-75
2023/05/07 06:29:32;;;;;;;11.98;7.10;;;;;;;;;;5066374;28;20052;-75
2023/05/07 06:32:12;;;;;;;14.95;7.45;;;;;;;;;;5065998;28;20071;-75
2023/05/07 06:34:44;;;;;;;17.25;6.65;;;;;;;;;;5066074;28;20396;-74
2023/05/07 06:37:16;;;;;;;11.98;7.35;;;;;;;;;;5066204;28;20091;-74
2023/05/07 06:39:59;;;;;;;18.92;7.90;;;;;;;;;;5065817;28;20057;-75
2023/05/07 06:42:31;;;;;;;16.20;6.95;;;;;;;;;;5065493;28;20052;-75
2023/05/07 06:45:19;;;;;;;17.98;7.40;;;;;;;;;;5065691;28;20044;-75
2023/05/07 06:47:50;;;;;;;15.23;7.95;;;;;;;;;;5066173;28;20052;-75
2023/05/07 06:50:20;;;;;;;15.68;7.97;;;;;;;;;;5066281;28;20045;-75
2023/05/07 06:52:53;;;;;;;15.95;8.23;;;;;;;;;;5066194;28;20060;-76
2023/05/07 06:55:24;;;;;;;17.17;8.43;;;;;;;;;;5067917;28;20407;-75
2023/05/07 06:57:57;;;;;;;13.90;8.07;;;;;;;;;;5065943;28;20055;-75
2023/05/07 07:00:28;;;;;;;16.00;8.07;;;;;;;;;;5065378;28;20059;-75
2023/05/07 07:03:00;;;;;;;12.82;7.57;;;;;;;;;;5067608;28;20098;-75
2023/05/07 07:05:32;;;;;;;11.90;7.15;;;;;;;;;;5065281;28;20412;-76
2023/05/07 07:08:03;;;;;;;14.75;7.75;;;;;;;;;;5065401;28;20056;-74
2023/05/07 07:10:34;;;;;;;17.63;8.05;;;;;;;;;;5067699;28;20036;-75
2023/05/07 07:13:04;;;;;;;19.48;8.00;;;;;;;;;;5065351;28;20053;-75
2023/05/07 07:15:34;;;;;;;18.92;8.18;;;;;;;;;;5067336;28;20411;-75
2023/05/07 07:18:06;;;;;;;22.10;7.97;;;;;;;;;;5065288;28;20521;-75
2023/05/07 07:20:37;;;;;;;15.32;8.10;;;;;;;;;;5048468;28;20057;-75
2023/05/07 07:23:08;;;;;;;15.45;7.53;;;;;;;;;;5066107;28;20059;-75
2023/05/07 07:25:39;;;;;;;13.25;6.25;;;;;;;;;;5065559;28;20411;-75
2023/05/07 07:28:10;;;;;;;15.13;7.03;;;;;;;;;;5065319;28;20052;-75
2023/05/07 07:30:41;;;;;;;14.02;6.82;;;;;;;;;;5067029;28;20051;-76
2023/05/07 07:33:12;;;;;;;19.83;7.80;;;;;;;;;;5065139;28;20052;-75
2023/05/07 07:35:42;;;;;;;20.75;8.07;;;;;;;;;;5066634;28;20064;-75
2023/05/07 07:38:13;;;;;;;16.80;6.80;;;;;;;;;;5065043;28;20053;-75
2023/05/07 07:40:44;;;;;;;22.95;7.65;;;;;;;;;;5064702;28;20486;-76
2023/05/07 07:43:14;;;;;;;42.17;8.30;;;;;;;;;;5065781;28;20055;-75
2023/05/07 07:45:45;;;;;;;146.27;11.80;;;;;;;;;;5065047;28;20056;-76
2023/05/07 07:48:16;;;;;;;50.80;8.43;;;;;;;;;;5065101;28;20048;-75
2023/05/07 07:50:50;;;;;;;23.92;8.48;;;;;;;;;;5064682;28;20056;-75
2023/05/07 07:53:21;;;;;;;62.05;9.55;;;;;;;;;;5063723;28;20059;-74
2023/05/07 07:55:51;;;;;;;82.65;9.35;;;;;;;;;;5064827;28;20052;-75
2023/05/07 07:58:32;;;;;;;93.80;9.20;;;;;;;;;;5064330;28;20055;-75
2023/05/07 08:01:02;;;;;;;23.95;8.40;;;;;;;;;;5064269;28;20051;-76
2023/05/07 08:03:33;;;;;;;31.88;8.70;;;;;;;;;;5066217;28;20049;-76
2023/05/07 08:06:04;;;;;;;50.25;9.55;;;;;;;;;;5064351;28;20053;-75
2023/05/07 08:08:39;;;;;;;53.58;9.88;;;;;;;;;;5064827;28;20052;-75
2023/05/07 08:11:10;;;;;;;91.50;9.02;;;;;;;;;;5063934;28;20053;-75
2023/05/07 08:13:41;;;;;;;90.82;9.13;;;;;;;;;;5063930;28;20060;-75
2023/05/07 08:16:11;;;;;;;113.03;10.93;;;;;;;;;;5065699;28;20048;-76
2023/05/07 08:18:42;;;;;;;186.35;15.43;;;;;;;;;;5065160;28;20036;-75
2023/05/07 08:21:12;;;;;;;214.70;13.05;;;;;;;;;;5048196;28;20061;-75
2023/05/07 08:23:42;;;;;;;132.25;10.93;;;;;;;;;;5064059;28;20087;-75
2023/05/07 08:26:13;;;;;;;268.75;13.32;;;;;;;;;;5063761;28;20547;-76
2023/05/07 08:28:44;;;;;;;190.43;11.88;;;;;;;;;;5063754;28;20052;-75
2023/05/07 08:31:14;;;;;;;188.75;11.52;;;;;;;;;;5064051;28;20059;-75
2023/05/07 08:33:46;;;;;;;176.60;11.23;;;;;;;;;;5064278;28;20048;-75
2023/05/07 08:36:16;;;;;;;118.85;11.23;;;;;;;;;;5065708;28;20052;-75
2023/05/07 08:38:46;;;;;;;149.43;12.35;;;;;;;;;;5063831;28;20044;-75
2023/05/07 08:41:16;;;;;;;156.77;10.75;;;;;;;;;;5064798;28;20052;-76
2023/05/07 08:43:50;;;;;;;178.75;13.35;;;;;;;;;;5063351;28;20052;-75
2023/05/07 08:46:31;;;;;;;106.50;10.50;;;;;;;;;;5064420;28;20439;-75
2023/05/07 08:49:01;;;;;;;79.25;10.00;;;;;;;;;;5064022;28;20537;-75
2023/05/07 08:51:32;;;;;;;204.52;11.43;;;;;;;;;;5065486;28;20055;-76
2023/05/07 08:54:02;;;;;;;205.93;10.27;;;;;;;;;;5065379;28;20510;-75
2023/05/07 08:56:34;;;;;;;157.88;9.77;;;;;;;;;;5063756;28;20060;-75
2023/05/07 08:59:05;;;;;;;119.43;8.68;;;;;;;;;;5063020;28;20048;-75
2023/05/07 09:01:36;;;;;;;179.55;14.95;;;;;;;;;;5064036;28;20056;-75
2023/05/07 09:04:08;;;;;;;159.65;9.20;;;;;;;;;;5063550;28;20051;-76
2023/05/07 09:06:41;;;;;;;130.20;9.45;;;;;;;;;;5063301;28;20423;-75
2023/05/07 09:09:18;;;;;;;65.85;8.45;;;;;;;;;;5063320;28;20056;-75
2023/05/07 09:12:03;;;;;;;123.65;9.55;;;;;;;;;;5063084;28;20048;-75
2023/05/07 09:14:36;;;;;;;185.02;11.52;;;;;;;;;;5063138;28;20053;-75
2023/05/07 09:17:07;;;;;;;90.85;6.60;;;;;;;;;;5063433;28;20348;-75
2023/05/07 09:19:37;;;;;;;153.15;10.57;;;;;;;;;;5063227;28;20052;-76
2023/05/07 09:22:09;;;;;;;187.10;12.30;;;;;;;;;;5063411;28;20056;-76
2023/05/07 09:24:55;;;;;;;148.25;9.95;;;;;;;;;;5064753;28;20525;-76
2023/05/07 09:27:28;;;;;;;83.80;7.68;;;;;;;;;;5062934;28;20049;-75
2023/05/07 09:29:59;;;;;;;129.57;9.52;;;;;;;;;;5063044;28;20057;-75
2023/05/07 09:32:31;;;;;;;129.68;9.40;;;;;;;;;;5062913;28;20157;-75
2023/05/07 09:35:02;;;;;;;78.03;7.25;;;;;;;;;;5065054;28;20052;-76
2023/05/07 09:37:34;;;;;;;56.30;7.40;;;;;;;;;;5063087;28;20053;-75
2023/05/07 09:40:05;;;;;;;100.20;9.35;;;;;;;;;;5047236;28;20539;-77
2023/05/07 09:42:38;;;;;;;68.05;7.63;;;;;;;;;;5065066;28;20054;-75
2023/05/07 09:45:09;;;;;;;68.63;7.50;;;;;;;;;;5064483;28;20044;-76
2023/05/07 09:47:47;;;;;;;44.55;6.90;;;;;;;;;;5047601;28;20074;-75
2023/05/07 09:50:19;;;;;;;131.30;8.48;;;;;;;;;;5046833;28;20083;-75
2023/05/07 09:52:50;;;;;;;79.63;7.85;;;;;;;;;;5063203;28;20060;-75
2023/05/07 09:55:22;;;;;;;94.57;9.23;;;;;;;;;;5063678;28;20049;-75
2023/05/07 09:57:55;;;;;;;97.47;9.23;;;;;;;;;;5063460;28;20053;-75
2023/05/07 10:00:29;;;;;;;186.60;10.25;;;;;;;;;;5063070;28;20052;-75
2023/05/07 10:03:11;;;;;;;88.30;8.98;;;;;;;;;;5058615;28;20067;-76
2023/05/07 10:05:59;;;;;;;152.23;10.18;;;;;;;;;;5059269;28;20075;-76
2023/05/07 10:08:31;;;;;;;77.60;8.13;;;;;;;;;;5042983;28;20421;-75
2023/05/07 10:11:05;;;;;;;76.57;8.13;;;;;;;;;;5042781;28;20541;-75
2023/05/07 10:13:37;;;;;;;29.70;7.40;;;;;;;;;;5042159;28;20528;-75
2023/05/07 10:16:11;;;;;;;64.93;7.78;;;;;;;;;;5042542;28;20068;-75
2023/05/07 10:18:48;;;;;;;77.00;8.73;;;;;;;;;;5042894;28;20057;-75
2023/05/07 10:21:23;;;;;;;67.00;8.13;;;;;;;;;;5042228;28;20796;-76
2023/05/07 10:24:10;;;;;;;67.13;9.35;;;;;;;;;;5027598;28;20049;-75
2023/05/07 10:26:46;;;;;;;44.22;7.30;;;;;;;;;;5042887;28;20075;-75
2023/05/07 10:29:35;;;;;;;78.82;9.75;;;;;;;;;;5042474;28;20060;-75
2023/05/07 10:32:40;;;;;;;82.53;8.98;;;;;;;;;;5044490;28;20048;-76
2023/05/07 10:35:22;;;;;;;43.03;7.43;;;;;;;;;;5042403;28;20509;-75
2023/05/07 10:37:53;;;;;;;87.40;9.10;;;;;;;;;;5042254;28;20075;-76
2023/05/07 10:40:26;;;;;;;53.47;7.80;;;;;;;;;;5043184;28;20057;-75
2023/05/07 10:43:01;;;;;;;72.28;8.32;;;;;;;;;;5044894;28;20053;-75
2023/05/07 10:45:36;;;;;;;43.53;7.05;;;;;;;;;;5046133;28;20522;-75
2023/05/07 10:48:17;;;;;;;70.22;7.50;;;;;;;;;;5045671;28;20064;-76
2023/05/07 10:51:21;;;;;;;60.53;6.60;;;;;;;;;;5046000;28;20052;-75
2023/05/07 10:54:12;;;;;;;62.42;8.55;;;;;;;;;;5046443;28;20530;-75
2023/05/07 10:56:51;;;;;;;22.27;7.20;;;;;;;;;;5045514;28;20052;-75
2023/05/07 10:59:41;;;;;;;63.58;7.45;;;;;;;;;;5046731;28;20048;-75
2023/05/07 11:02:20;;;;;;;51.40;7.15;;;;;;;;;;5045318;28;20542;-75
2023/05/07 11:05:22;;;;;;;44.92;7.90;;;;;;;;;;5045452;28;20049;-75
2023/05/07 11:08:07;;;;;;;72.68;7.85;;;;;;;;;;5045671;28;20052;-74
2023/05/07 11:10:56;;;;;;;44.90;7.10;;;;;;;;;;5045434;28;20060;-75
2023/05/07 11:13:50;;;;;;;40.97;7.35;;;;;;;;;;5045293;28;20057;-75
2023/05/07 11:16:44;;;;;;;37.53;6.70;;;;;;;;;;5047021;28;20385;-75
2023/05/07 11:19:55;;;;;;;65.75;6.93;;;;;;;;;;5044863;28;20045;-75
2023/05/07 11:22:41;;;;;;;162.82;10.18;;;;;;;;;;5044800;28;20044;-75
2023/05/07 11:25:32;;;;;;;57.30;7.38;;;;;;;;;;5046255;28;20132;-75
2023/05/07 11:28:13;;;;;;;32.33;7.30;;;;;;;;;;5045290;28;20064;-75
2023/05/07 11:30:54;;;;;;;63.20;8.32;;;;;;;;;;5045278;28;20049;-75
2023/05/07 11:33:27;;;;;;;94.47;8.68;;;;;;;;;;5045180;28;20060;-76
2023/05/07 11:36:03;;;;;;;48.45;8.10;;;;;;;;;;5044664;28;20057;-75
2023/05/07 11:38:38;;;;;;;70.72;9.13;;;;;;;;;;5044911;28;21131;-76
2023/05/07 11:41:10;;;;;;;53.63;9.88;;;;;;;;;;5046809;28;20045;-75
2023/05/07 11:43:56;;;;;;;55.28;8.52;;;;;;;;;;5046650;28;20408;-75
2023/05/07 11:46:28;;;;;;;75.18;9.95;;;;;;;;;;5046736;28;20492;-75
2023/05/07 11:48:58;;;;;;;39.50;9.27;;;;;;;;;;5046673;28;20053;-76
2023/05/07 11:51:28;;;;;;;45.05;9.48;;;;;;;;;;5046705;28;20491;-76
2023/05/07 11:53:58;;;;;;;84.88;9.90;;;;;;;;;;5046330;28;20049;-75
2023/05/07 11:56:31;;;;;;;36.97;9.25;;;;;;;;;;5046781;28;20045;-75
2023/05/07 11:59:01;;;;;;;28.95;9.65;;;;;;;;;;5046110;28;20044;-76
2023/05/07 12:01:31;;;;;;;26.63;9.77;;;;;;;;;;5046372;28;20045;-76
2023/05/07 12:04:05;;;;;;;22.35;9.82;;;;;;;;;;5046215;28;20051;-76
2023/05/07 12:06:38;;;;;;;24.83;10.48;;;;;;;;;;5046144;28;20059;-77
2023/05/07 12:09:11;;;;;;;27.45;12.40;;;;;;;;;;5045965;28;20504;-76
2023/05/07 12:11:46;;;;;;;22.42;10.25;;;;;;;;;;5045783;28;20056;-76
2023/05/07 12:14:17;;;;;;;18.02;9.98;;;;;;;;;;5046657;28;20091;-76
2023/05/07 12:16:48;;;;;;;21.65;11.90;;;;;;;;;;5046624;28;20049;-76
2023/05/07 12:19:18;;;;;;;19.80;10.63;;;;;;;;;;5046554;28;20052;-76
2023/05/07 12:21:48;;;;;;;23.15;11.40;;;;;;;;;;5045434;28;20049;-75
2023/05/07 12:24:19;;;;;;;23.55;11.95;;;;;;;;;;5044594;28;20524;-75
2023/05/07 12:26:51;;;;;;;44.08;27.02;;;;;;;;;;5045879;28;20059;-75
2023/05/07 12:29:25;;;;;;;20.15;11.32;;;;;;;;;;5045822;28;20044;-76
2023/05/07 12:31:55;;;;;;;24.58;11.82;;;;;;;;;;5044259;28;20408;-76
2023/05/07 12:34:26;;;;;;;27.95;15.90;;;;;;;;;;5045834;28;20504;-75
2023/05/07 12:36:56;;;;;;;19.02;9.43;;;;;;;;;;5045472;28;20435;-75
2023/05/07 12:39:27;;;;;;;17.65;9.10;;;;;;;;;;5044745;28;20515;-75
2023/05/07 12:41:59;;;;;;;17.45;9.20;;;;;;;;;;5045266;28;20060;-75
2023/05/07 12:44:33;;;;;;;18.42;10.30;;;;;;;;;;5045700;28;20049;-80
2023/05/07 12:47:05;;;;;;;15.40;8.40;;;;;;;;;;5045253;28;20037;-75
2023/05/07 12:49:38;;;;;;;18.35;8.88;;;;;;;;;;5045325;28;20045;-75
2023/05/07 12:52:08;;;;;;;16.30;9.52;;;;;;;;;;5045856;28;20060;-76
2023/05/07 12:54:39;;;;;;;23.42;10.35;;;;;;;;;;5045023;28;20523;-75
2023/05/07 12:57:10;;;;;;;15.63;8.38;;;;;;;;;;5045137;28;20509;-76
2023/05/07 12:59:42;;;;;;;13.38;8.20;;;;;;;;;;5044866;28;20045;-75
2023/05/07 13:02:14;;;;;;;14.75;7.63;;;;;;;;;;5045525;28;20407;-76
2023/05/07 13:04:45;;;;;;;10.98;7.10;;;;;;;;;;5044785;28;20052;-75
2023/05/07 13:07:16;;;;;;;13.15;6.82;;;;;;;;;;5045328;28;20049;-76
2023/05/07 13:09:47;;;;;;;11.15;6.05;;;;;;;;;;5044999;28;20052;-76
2023/05/07 13:12:19;;;;;;;12.57;6.47;;;;;;;;;;5044761;28;20041;-76
2023/05/07 13:14:49;;;;;;;9.07;6.40;;;;;;;;;;5045214;28;20124;-76
2023/05/07 13:17:20;;;;;;;13.40;6.32;;;;;;;;;;5044090;28;20044;-76
2023/05/07 13:19:50;;;;;;;12.25;7.93;;;;;;;;;;5045414;28;20045;-77
2023/05/07 13:22:20;;;;;;;10.88;7.40;;;;;;;;;;5045145;28;20434;-76
2023/05/07 13:24:51;;;;;;;13.35;7.70;;;;;;;;;;5045536;28;20048;-76
2023/05/07 13:27:21;;;;;;;22.08;8.50;;;;;;;;;;5044461;28;20047;-77
2023/05/07 13:29:51;;;;;;;11.50;8.65;;;;;;;;;;5044540;28;20056;-76
2023/05/07 13:32:21;;;;;;;10.52;6.97;;;;;;;;;;5044825;28;20072;-77
2023/05/07 13:34:52;;;;;;;14.70;7.28;;;;;;;;;;5044660;28;20403;-76
2023/05/07 13:37:22;;;;;;;13.77;8.85;;;;;;;;;;5044805;28;20040;-75
2023/05/07 13:39:53;;;;;;;6.25;4.72;;;;;;;;;;5045542;28;20365;-76
2023/05/07 13:42:23;;;;;;;13.50;5.50;;;;;;;;;;5044555;28;20048;-75
2023/05/07 13:44:53;;;;;;;5.57;4.43;;;;;;;;;;5043903;28;20511;-77
2023/05/07 13:47:24;;;;;;;7.07;4.50;;;;;;;;;;5044270;28;20523;-76
2023/05/07 13:49:56;;;;;;;18.15;6.30;;;;;;;;;;5044636;28;20411;-76
2023/05/07 13:52:26;;;;;;;10.05;7.97;;;;;;;;;;5044926;28;20045;-77
2023/05/07 13:54:58;;;;;;;7.30;5.40;;;;;;;;;;5044720;28;20504;-75
2023/05/07 13:57:29;;;;;;;7.10;5.10;;;;;;;;;;5044714;28;20049;-75
2023/05/07 14:00:00;;;;;;;8.85;5.72;;;;;;;;;;5043773;28;20048;-76
2023/05/07 14:02:31;;;;;;;12.23;5.80;;;;;;;;;;5042722;28;20056;-77
2023/05/07 14:05:09;;;;;;;8.02;5.00;;;;;;;;;;5042604;28;20519;-76
2023/05/07 14:07:49;;;;;;;8.25;5.40;;;;;;;;;;5040711;28;20044;-79
2023/05/07 14:10:28;;;;;;;9.32;5.88;;;;;;;;;;5023860;28;20049;-77
2023/05/07 14:12:59;;;;;;;5.75;5.03;;;;;;;;;;5040111;28;20499;-77
2023/05/07 14:15:33;;;;;;;5.72;4.85;;;;;;;;;;5037819;28;20492;-77
2023/05/07 14:18:08;;;;;;;9.68;5.22;;;;;;;;;;5044629;28;20128;-76
2023/05/07 14:20:46;;;;;;;9.93;5.85;;;;;;;;;;5045825;28;20060;-77
2023/05/07 14:23:17;;;;;;;7.13;5.68;;;;;;;;;;5047531;28;20555;-78
2023/05/07 14:25:47;;;;;;;6.72;5.75;;;;;;;;;;5050987;28;20434;-77
2023/05/07 14:28:19;;;;;;;12.45;5.80;;;;;;;;;;5056330;28;20060;-76
2023/05/07 14:30:49;;;;;;;7.07;5.50;;;;;;;;;;5056315;28;20133;-77
2023/05/07 14:33:19;;;;;;;7.93;5.10;;;;;;;;;;5057130;28;20044;-77
2023/05/07 14:35:49;;;;;;;13.00;6.68;;;;;;;;;;5065653;28;20052;-76
2023/05/07 14:38:21;;;;;;;7.43;5.22;;;;;;;;;;5066228;28;20057;-77
2023/05/07 14:40:55;;;;;;;10.93;5.95;;;;;;;;;;5067984;28;20051;-75
2023/05/07 14:43:25;;;;;;;10.02;5.38;;;;;;;;;;5067920;28;20053;-76
2023/05/07 14:45:55;;;;;;;7.72;5.07;;;;;;;;;;5067422;28;20064;-77
2023/05/07 14:48:26;;;;;;;8.75;5.63;;;;;;;;;;5067995;28;20067;-76
2023/05/07 14:51:04;;;;;;;9.88;7.25;;;;;;;;;;5067653;28;20047;-76
2023/05/07 14:53:34;;;;;;;13.45;8.60;;;;;;;;;;5067394;28;20075;-81
2023/05/07 14:56:05;;;;;;;11.32;7.45;;;;;;;;;;5067612;28;20040;-76
2023/05/07 14:58:37;;;;;;;10.18;7.10;;;;;;;;;;5067436;28;20040;-77
2023/05/07 15:01:08;;;;;;;15.38;10.57;;;;;;;;;;5067842;28;20057;-76
2023/05/07 15:03:39;;;;;;;10.23;7.47;;;;;;;;;;5066392;28;20059;-76
2023/05/07 15:06:09;;;;;;;11.25;8.00;;;;;;;;;;5066994;28;20040;-77